Time;durP1;ratioP1;P1;durP2;ratioP2;P2;SDS_P1;SDS_P2;PMS_P1;PMS_P2;Temp;Humidity;BMP_temperature;BMP_pressure;BME280_temperature;BME280_humidity;BME280_pressure;Samples;Min_cycle;Max_cycle;Signal;HPM_P1;HPM_P2
2022/01/10 00:02:21;;;;;;;24.17;21.77;;;23.10;70.30;;;;;;6244456;28;83884;-67
2022/01/10 00:05:23;;;;;;;24.02;21.63;;;23.00;70.30;;;;;;6247833;27;82959;-68
2022/01/10 00:08:25;;;;;;;24.30;21.85;;;23.00;70.30;;;;;;6245270;27;83708;-68
2022/01/10 00:11:28;;;;;;;23.85;21.40;;;23.00;70.30;;;;;;6243863;28;84019;-68
2022/01/10 00:14:30;;;;;;;23.42;21.02;;;23.00;70.30;;;;;;6258637;28;84032;-67
2022/01/10 00:17:33;;;;;;;23.90;21.50;;;23.00;70.30;;;;;;6250379;27;82875;-68
2022/01/10 00:20:35;;;;;;;23.55;21.17;;;23.00;70.30;;;;;;6237370;28;82907;-67
2022/01/10 00:23:37;;;;;;;22.65;20.40;;;23.00;70.30;;;;;;6259380;28;83294;-67
2022/01/10 00:26:39;;;;;;;23.10;20.77;;;22.90;70.30;;;;;;6240530;28;84032;-68
2022/01/10 00:29:41;;;;;;;23.45;21.05;;;22.90;70.30;;;;;;6234865;28;84088;-68
2022/01/10 00:32:46;;;;;;;22.27;20.08;;;22.90;70.30;;;;;;6254772;28;84954;-68
2022/01/10 00:35:48;;;;;;;23.17;20.88;;;22.90;70.30;;;;;;6247151;28;83919;-68
2022/01/10 00:38:50;;;;;;;23.45;21.05;;;22.90;70.30;;;;;;6257494;27;83960;-68
2022/01/10 00:45:17;;;;;;;21.42;19.23;;;22.90;70.30;;;;;;6247898;28;82745;-68
2022/01/10 00:48:21;;;;;;;21.38;19.20;;;22.90;70.30;;;;;;6259302;28;84546;-68
2022/01/10 00:51:23;;;;;;;21.75;19.55;;;22.90;70.30;;;;;;6260550;28;84042;-67
2022/01/10 00:54:25;;;;;;;21.55;19.38;;;22.80;70.30;;;;;;6249656;28;83314;-68
2022/01/10 00:57:27;;;;;;;20.67;18.58;;;22.90;70.40;;;;;;6260296;28;84076;-67
2022/01/10 01:00:30;;;;;;;21.35;19.15;;;22.90;70.40;;;;;;6252128;28;84017;-68
2022/01/10 01:03:34;;;;;;;21.42;19.25;;;22.90;70.40;;;;;;6249299;28;83876;-68
2022/01/10 01:06:36;;;;;;;21.05;18.92;;;22.80;70.30;;;;;;6233910;28;84084;-67
2022/01/10 01:09:40;;;;;;;20.33;18.30;;;22.80;70.30;;;;;;6247979;28;82976;-68
2022/01/10 01:12:49;;;;;;;20.40;18.30;;;22.70;70.30;;;;;;6252761;28;83828;-68
2022/01/10 01:16:09;;;;;;;19.60;17.60;;;22.70;70.30;;;;;;6259639;27;83875;-67
2022/01/10 01:25:57;;;;;;;19.85;17.75;;;22.80;70.50;;;;;;6259052;28;84022;-68
2022/01/10 01:28:59;;;;;;;19.10;17.08;;;22.70;70.40;;;;;;6249603;28;82878;-68
2022/01/10 01:32:02;;;;;;;19.10;17.20;;;22.70;70.30;;;;;;6259906;27;84006;-68
2022/01/10 01:35:07;;;;;;;19.52;17.52;;;22.70;70.30;;;;;;6256331;28;84977;-66
2022/01/10 01:38:10;;;;;;;20.02;18.02;;;22.70;70.30;;;;;;6252384;28;83773;-68
2022/01/10 01:41:24;;;;;;;19.33;17.42;;;22.70;70.40;;;;;;6237189;28;84060;-68
2022/01/10 01:44:26;;;;;;;19.23;17.27;;;22.70;70.30;;;;;;6259004;28;83596;-68
2022/01/10 01:47:28;;;;;;;18.95;17.05;;;22.70;70.30;;;;;;6259231;27;83982;-67
2022/01/10 01:50:32;;;;;;;19.42;17.42;;;22.70;70.40;;;;;;6259212;28;84002;-68
2022/01/10 01:53:36;;;;;;;18.23;16.42;;;22.70;70.40;;;;;;6246803;28;84055;-68
2022/01/10 01:56:39;;;;;;;18.65;16.75;;;22.60;70.30;;;;;;6258813;28;83387;-67
2022/01/10 01:59:41;;;;;;;18.08;16.30;;;22.70;70.40;;;;;;6246866;28;84067;-68
2022/01/10 02:02:43;;;;;;;19.63;17.63;;;22.60;70.30;;;;;;6243763;28;83942;-68
2022/01/10 02:05:47;;;;;;;18.80;16.90;;;22.60;70.30;;;;;;6248894;28;85342;-68
2022/01/10 02:08:49;;;;;;;18.77;16.88;;;22.60;70.30;;;;;;6250879;28;84156;-68
2022/01/10 02:11:51;;;;;;;18.95;17.05;;;22.60;70.30;;;;;;6245634;27;83802;-68
2022/01/10 02:14:53;;;;;;;19.08;17.17;;;22.60;70.30;;;;;;6257664;28;83989;-68
2022/01/10 02:17:59;;;;;;;18.40;16.52;;;22.60;70.30;;;;;;6259981;28;83312;-68
2022/01/10 02:21:05;;;;;;;18.40;16.60;;;22.60;70.30;;;;;;6250146;28;84051;-68
2022/01/10 02:24:07;;;;;;;18.73;16.90;;;22.60;70.30;;;;;;6258473;28;83349;-68
2022/01/10 02:27:10;;;;;;;18.63;16.73;;;22.60;70.30;;;;;;6245215;28;82934;-68
2022/01/10 02:30:12;;;;;;;19.38;17.42;;;22.60;71.20;;;;;;6257607;28;84272;-68
2022/01/10 02:33:14;;;;;;;17.65;15.85;;;22.60;70.30;;;;;;6258989;28;83953;-68
2022/01/10 02:36:24;;;;;;;17.65;15.95;;;22.60;70.30;;;;;;6254941;28;85010;-68
2022/01/10 02:39:26;;;;;;;18.48;16.58;;;22.50;70.30;;;;;;6244324;28;84321;-68
2022/01/10 02:42:28;;;;;;;19.77;17.77;;;22.50;70.30;;;;;;6257280;28;84127;-68
2022/01/10 02:45:30;;;;;;;18.83;16.92;;;22.50;70.30;;;;;;6258391;28;84131;-68
2022/01/10 02:48:33;;;;;;;18.08;16.25;;;22.50;70.50;;;;;;6244859;28;84021;-68
2022/01/10 02:51:36;;;;;;;18.08;16.27;;;22.50;70.40;;;;;;6260111;28;84672;-67
2022/01/10 02:54:38;;;;;;;17.90;16.10;;;22.50;70.40;;;;;;6256351;28;84376;-68
2022/01/10 02:57:41;;;;;;;17.85;16.05;;;22.50;70.40;;;;;;6252958;28;83260;-68
2022/01/10 03:00:43;;;;;;;16.92;15.25;;;22.50;70.50;;;;;;6251709;27;84083;-68
2022/01/10 03:03:45;;;;;;;17.73;16.02;;;22.50;70.40;;;;;;6259171;28;82921;-68
2022/01/10 03:06:49;;;;;;;17.42;15.65;;;22.40;70.40;;;;;;6257588;28;84824;-68
2022/01/10 03:09:51;;;;;;;17.70;15.90;;;22.40;70.40;;;;;;6243202;28;84075;-68
2022/01/10 03:12:53;;;;;;;17.45;15.65;;;22.50;70.50;;;;;;6248092;28;84232;-69
2022/01/10 03:15:55;;;;;;;16.73;15.07;;;22.40;70.40;;;;;;6258056;28;84271;-68
2022/01/10 03:18:58;;;;;;;16.85;15.10;;;22.40;70.30;;;;;;6257419;28;84017;-68
2022/01/10 03:22:02;;;;;;;17.73;15.93;;;22.40;70.30;;;;;;6258048;28;84010;-68
2022/01/10 03:25:06;;;;;;;17.27;15.48;;;22.40;70.40;;;;;;6252482;28;83377;-68
2022/01/10 03:28:13;;;;;;;16.60;14.90;;;22.40;70.40;;;;;;6251580;28;85015;-68
2022/01/10 03:31:15;;;;;;;16.95;15.23;;;22.40;70.30;;;;;;6247016;28;82872;-68
2022/01/10 03:34:18;;;;;;;16.88;15.10;;;22.40;70.40;;;;;;6258671;28;84059;-68
2022/01/10 03:37:21;;;;;;;16.42;14.77;;;22.40;70.50;;;;;;6249489;27;83694;-68
2022/01/10 03:40:23;;;;;;;16.55;14.85;;;22.40;70.50;;;;;;6252514;28;83775;-68
2022/01/10 03:43:26;;;;;;;15.45;13.88;;;22.40;70.50;;;;;;6261511;28;83713;-68
2022/01/10 03:46:28;;;;;;;16.85;15.15;;;22.30;70.50;;;;;;6260752;28;83639;-68
2022/01/10 03:49:30;;;;;;;15.73;14.23;;;22.40;70.50;;;;;;6256777;28;84185;-68
2022/01/10 03:52:34;;;;;;;15.25;13.75;;;22.30;70.50;;;;;;6255284;28;82927;-68
2022/01/10 03:55:36;;;;;;;15.27;13.73;;;22.30;70.50;;;;;;6263377;28;83351;-68
2022/01/10 03:58:38;;;;;;;15.48;13.98;;;22.30;70.50;;;;;;6262464;28;83241;-68
2022/01/10 04:01:40;;;;;;;15.30;13.80;;;22.30;70.50;;;;;;6261671;27;82747;-68
2022/01/10 04:04:42;;;;;;;14.10;12.70;;;22.30;70.50;;;;;;6260729;28;84386;-68
2022/01/10 04:07:46;;;;;;;15.23;13.73;;;22.30;70.50;;;;;;6261264;28;85411;-68
2022/01/10 04:10:48;;;;;;;15.00;13.50;;;22.30;70.50;;;;;;6261191;28;84104;-68
2022/01/10 04:13:50;;;;;;;14.63;13.13;;;22.30;71.00;;;;;;6252056;27;83229;-68
2022/01/10 04:16:52;;;;;;;14.50;13.10;;;22.30;70.50;;;;;;6257245;28;83993;-68
2022/01/10 04:19:54;;;;;;;14.40;13.00;;;22.30;70.50;;;;;;6260407;28;84550;-68
2022/01/10 04:22:58;;;;;;;14.60;13.20;;;22.30;70.50;;;;;;6243293;28;84145;-68
2022/01/10 04:26:00;;;;;;;14.70;13.20;;;22.30;70.30;;;;;;6252928;28;84061;-67
2022/01/10 04:29:02;;;;;;;14.63;13.18;;;22.30;70.30;;;;;;6261433;28;84512;-68
2022/01/10 04:32:05;;;;;;;13.82;12.43;;;22.30;70.30;;;;;;6259141;27;84027;-68
2022/01/10 04:35:08;;;;;;;13.52;12.13;;;22.30;70.30;;;;;;6262588;28;83992;-67
2022/01/10 04:38:12;;;;;;;14.00;12.63;;;22.30;70.40;;;;;;6247152;27;85026;-68
2022/01/10 04:41:14;;;;;;;13.40;12.07;;;22.30;70.30;;;;;;6260617;28;83030;-67
2022/01/10 04:44:16;;;;;;;13.48;12.18;;;22.30;70.30;;;;;;6260239;28;84165;-67
2022/01/10 04:47:19;;;;;;;13.02;11.73;;;22.30;70.20;;;;;;6259526;28;84021;-68
2022/01/10 04:53:50;;;;;;;12.70;11.48;;;22.40;70.20;;;;;;6232831;28;82642;-68
2022/01/10 04:56:52;;;;;;;12.40;11.20;;;22.40;70.10;;;;;;6248656;27;83692;-67
2022/01/10 04:59:54;;;;;;;11.90;10.70;;;22.40;70.10;;;;;;6247651;28;83290;-69
2022/01/10 05:02:56;;;;;;;12.77;11.48;;;22.40;70.00;;;;;;6261711;28;85910;-68
2022/01/10 05:05:58;;;;;;;12.38;11.18;;;22.50;70.00;;;;;;6248682;28;84301;-68
2022/01/10 05:09:02;;;;;;;11.60;10.50;;;22.50;70.00;;;;;;6258359;28;85000;-68
2022/01/10 05:12:05;;;;;;;11.90;10.75;;;22.50;69.90;;;;;;6259992;28;84123;-68
2022/01/10 05:15:08;;;;;;;11.57;10.48;;;22.50;69.80;;;;;;6233748;28;84079;-68
2022/01/10 05:18:10;;;;;;;11.68;10.57;;;22.50;69.80;;;;;;6248881;28;84102;-68
2022/01/10 05:21:13;;;;;;;10.57;9.57;;;22.50;69.80;;;;;;6257557;28;83024;-68
2022/01/10 05:24:17;;;;;;;11.10;10.00;;;22.50;69.80;;;;;;6260848;28;83797;-68
2022/01/10 05:27:19;;;;;;;10.98;9.88;;;22.50;69.80;;;;;;6260210;28;84042;-68
2022/01/10 05:30:21;;;;;;;11.23;10.18;;;22.50;69.80;;;;;;6260199;28;83354;-68
2022/01/10 05:33:23;;;;;;;10.93;9.82;;;22.50;69.80;;;;;;6243688;28;85232;-68
2022/01/10 05:36:26;;;;;;;10.57;9.57;;;22.50;69.80;;;;;;6244017;28;84010;-68
2022/01/10 05:39:29;;;;;;;10.30;9.30;;;22.50;69.90;;;;;;6245459;28;85262;-68
2022/01/10 05:42:31;;;;;;;10.48;9.38;;;22.50;69.90;;;;;;6254917;28;82895;-68
2022/01/10 05:45:34;;;;;;;10.20;9.20;;;22.50;69.90;;;;;;6248843;28;83933;-68
2022/01/10 05:48:39;;;;;;;10.50;9.50;;;22.50;69.90;;;;;;6251356;28;84192;-68
2022/01/10 05:51:41;;;;;;;10.55;9.52;;;22.50;70.00;;;;;;6260353;28;83760;-68
2022/01/10 05:54:45;;;;;;;9.55;8.65;;;22.40;70.00;;;;;;6261057;28;84144;-68
2022/01/10 05:57:47;;;;;;;9.45;8.55;;;22.50;70.10;;;;;;6260360;27;84322;-68
2022/01/10 06:00:49;;;;;;;9.88;8.98;;;22.50;70.10;;;;;;6260953;28;82506;-68
2022/01/10 06:03:51;;;;;;;9.95;8.95;;;22.40;70.00;;;;;;6258047;27;84387;-68
2022/01/10 06:06:53;;;;;;;9.02;8.13;;;22.50;70.10;;;;;;6261637;28;83966;-68
2022/01/10 06:09:57;;;;;;;9.20;8.30;;;22.40;70.00;;;;;;6259762;28;84919;-68
2022/01/10 06:12:59;;;;;;;9.73;8.82;;;22.50;70.10;;;;;;6247660;27;83199;-68
2022/01/10 06:16:01;;;;;;;9.30;8.40;;;22.50;70.00;;;;;;6259748;28;84046;-66
2022/01/10 06:19:04;;;;;;;8.85;8.02;;;22.50;70.00;;;;;;6249549;28;82874;-68
2022/01/10 06:22:06;;;;;;;8.70;7.82;;;22.50;70.00;;;;;;6260496;28;84263;-67
2022/01/10 06:25:12;;;;;;;9.25;8.35;;;22.50;70.00;;;;;;6258999;28;83931;-69
2022/01/10 06:28:14;;;;;;;8.70;7.80;;;22.50;70.00;;;;;;6245939;28;82849;-68
2022/01/10 06:31:16;;;;;;;8.95;8.05;;;22.50;70.90;;;;;;6261089;28;82180;-69
2022/01/10 06:34:19;;;;;;;8.68;7.88;;;22.50;70.00;;;;;;6260789;28;84128;-68
2022/01/10 06:37:21;;;;;;;8.25;7.45;;;22.50;69.90;;;;;;6244783;28;84020;-68
2022/01/10 06:40:24;;;;;;;8.45;7.65;;;22.50;69.90;;;;;;6259675;28;83855;-67
2022/01/10 06:43:26;;;;;;;8.45;7.57;;;22.50;70.00;;;;;;6258541;28;83671;-68
2022/01/10 06:46:29;;;;;;;8.40;7.57;;;22.50;69.90;;;;;;6260065;28;84097;-68
2022/01/10 06:49:31;;;;;;;8.63;7.82;;;22.50;69.90;;;;;;6259777;28;84117;-68
2022/01/10 06:52:33;;;;;;;8.10;7.30;;;22.60;70.00;;;;;;6254366;28;84160;-68
2022/01/10 06:55:36;;;;;;;8.43;7.63;;;22.60;69.90;;;;;;6237354;28;83196;-68
2022/01/10 06:58:38;;;;;;;7.65;6.95;;;22.60;69.80;;;;;;6260342;28;83665;-68
2022/01/10 07:01:41;;;;;;;8.23;7.35;;;22.60;69.70;;;;;;6260027;28;82125;-68
2022/01/10 07:04:43;;;;;;;7.47;6.78;;;22.60;69.70;;;;;;6259323;28;83249;-68
2022/01/10 07:07:45;;;;;;;7.32;6.60;;;22.70;69.70;;;;;;6258042;27;83961;-68
2022/01/10 07:10:49;;;;;;;7.43;6.72;;;22.70;69.70;;;;;;6258093;28;84229;-68
2022/01/10 07:13:52;;;;;;;7.93;7.13;;;22.70;69.70;;;;;;6261003;27;84019;-68
2022/01/10 07:16:54;;;;;;;7.30;6.60;;;22.70;69.60;;;;;;6243475;27;83883;-68
2022/01/10 07:19:56;;;;;;;7.35;6.65;;;22.70;69.60;;;;;;6257000;27;84028;-68
2022/01/10 07:22:58;;;;;;;7.30;6.60;;;22.70;69.50;;;;;;6264095;27;83946;-68
2022/01/10 07:26:02;;;;;;;7.03;6.35;;;22.70;69.50;;;;;;6263944;27;84026;-68
2022/01/10 07:29:07;;;;;;;7.18;6.47;;;22.80;69.50;;;;;;6252038;28;82907;-68
2022/01/10 07:32:09;;;;;;;6.68;6.07;;;22.80;69.60;;;;;;6262597;28;83470;-68
2022/01/10 07:35:12;;;;;;;6.85;6.15;;;22.80;69.50;;;;;;6262157;28;82884;-68
2022/01/10 07:38:14;;;;;;;6.90;6.20;;;22.80;69.40;;;;;;6264662;28;84014;-68
2022/01/10 07:41:18;;;;;;;6.45;5.85;;;22.80;69.40;;;;;;6262609;28;84981;-68
2022/01/10 07:44:20;;;;;;;6.40;5.80;;;22.80;69.40;;;;;;6263351;28;84088;-67
2022/01/10 07:47:22;;;;;;;6.38;5.78;;;22.90;69.50;;;;;;6261790;28;84021;-68
2022/01/10 07:50:24;;;;;;;6.53;5.93;;;22.90;69.40;;;;;;6264034;28;82910;-68
2022/01/10 07:53:26;;;;;;;5.95;5.35;;;22.90;69.40;;;;;;6251293;28;84205;-67
2022/01/10 07:56:30;;;;;;;6.60;5.88;;;22.90;69.40;;;;;;6263533;28;83938;-67
2022/01/10 07:59:32;;;;;;;6.18;5.57;;;22.90;69.30;;;;;;6250257;28;84123;-68
2022/01/10 08:02:35;;;;;;;6.03;5.43;;;22.90;69.30;;;;;;6261821;27;83344;-68
2022/01/10 08:05:37;;;;;;;6.07;5.47;;;22.90;69.30;;;;;;6251010;28;84051;-68
2022/01/10 08:08:39;;;;;;;6.13;5.53;;;22.90;69.30;;;;;;6249358;28;84110;-68
2022/01/10 08:11:43;;;;;;;5.78;5.28;;;23.00;69.40;;;;;;6261383;28;85186;-68
2022/01/10 08:14:45;;;;;;;5.53;5.03;;;23.00;69.40;;;;;;6261533;28;83287;-66
2022/01/10 08:17:48;;;;;;;6.10;5.50;;;23.00;69.30;;;;;;6251692;28;84006;-68
2022/01/10 08:20:50;;;;;;;5.88;5.30;;;23.00;69.30;;;;;;6263306;28;84056;-68
2022/01/10 08:23:52;;;;;;;5.55;4.93;;;23.00;69.30;;;;;;6262571;27;83971;-67
2022/01/10 08:26:56;;;;;;;5.40;4.88;;;23.00;69.30;;;;;;6248040;28;84362;-68
2022/01/10 08:29:58;;;;;;;5.95;5.35;;;23.00;69.30;;;;;;6261870;28;84090;-67
2022/01/10 08:33:00;;;;;;;5.55;4.95;;;23.00;69.30;;;;;;6264324;27;83276;-67
2022/01/10 08:36:03;;;;;;;5.32;4.82;;;23.00;69.20;;;;;;6261665;28;83439;-68
2022/01/10 08:39:06;;;;;;;5.03;4.57;;;23.00;69.20;;;;;;6260698;28;83942;-68
2022/01/10 08:42:10;;;;;;;5.35;4.85;;;23.00;69.20;;;;;;6260702;27;85010;-68
2022/01/10 08:45:12;;;;;;;5.32;4.82;;;23.00;69.20;;;;;;6262035;28;84359;-67
2022/01/10 08:48:14;;;;;;;5.50;5.00;;;23.10;69.30;;;;;;6262860;28;83034;-67
2022/01/10 08:51:16;;;;;;;5.10;4.60;;;23.10;69.20;;;;;;6247078;27;83219;-68
2022/01/10 08:54:18;;;;;;;5.25;4.75;;;23.10;69.30;;;;;;6262984;27;84109;-67
2022/01/10 08:57:22;;;;;;;5.28;4.78;;;23.10;69.30;;;;;;6262393;28;84394;-67
2022/01/10 09:00:24;;;;;;;5.55;5.03;;;23.10;69.20;;;;;;6260478;28;84046;-68
2022/01/10 09:03:26;;;;;;;4.93;4.53;;;23.10;69.20;;;;;;6262417;28;83547;-68
2022/01/10 09:06:28;;;;;;;5.00;4.50;;;23.10;69.20;;;;;;6259357;28;84031;-68
2022/01/10 09:09:30;;;;;;;5.05;4.55;;;23.10;69.20;;;;;;6250655;27;84141;-68
2022/01/10 09:12:34;;;;;;;5.05;4.55;;;23.10;69.20;;;;;;6260608;28;84933;-68
2022/01/10 09:15:37;;;;;;;4.75;4.35;;;23.10;69.10;;;;;;6262907;27;84369;-67
2022/01/10 09:18:39;;;;;;;4.85;4.45;;;23.10;69.10;;;;;;6252940;27;84138;-68
2022/01/10 09:21:42;;;;;;;4.75;4.35;;;23.10;69.10;;;;;;6259082;28;84477;-67
2022/01/10 09:24:46;;;;;;;4.30;3.90;;;23.10;69.10;;;;;;6260125;28;84195;-68
2022/01/10 09:27:50;;;;;;;4.30;3.90;;;23.20;69.10;;;;;;6256964;28;82872;-67
2022/01/10 09:30:52;;;;;;;4.55;4.15;;;23.20;69.10;;;;;;6253850;28;84485;-68
2022/01/10 09:33:55;;;;;;;4.80;4.40;;;23.20;69.10;;;;;;6262146;28;83576;-68
2022/01/10 09:36:57;;;;;;;4.63;4.20;;;23.20;69.10;;;;;;6244993;28;82906;-67
2022/01/10 09:40:00;;;;;;;4.40;4.00;;;23.20;69.10;;;;;;6249350;28;84090;-68
2022/01/10 09:43:04;;;;;;;4.30;3.90;;;23.20;69.10;;;;;;6260036;28;85076;-68
2022/01/10 09:46:06;;;;;;;4.40;4.00;;;23.20;69.10;;;;;;6260981;28;83882;-68
2022/01/10 09:49:08;;;;;;;4.38;3.90;;;23.20;69.10;;;;;;6262643;27;84235;-68
2022/01/10 09:52:10;;;;;;;4.20;3.80;;;23.20;69.10;;;;;;6261434;28;84212;-68
2022/01/10 09:55:13;;;;;;;4.07;3.67;;;23.20;69.10;;;;;;6246225;28;83908;-68
2022/01/10 09:58:16;;;;;;;4.40;4.00;;;23.20;69.00;;;;;;6259134;28;84198;-68
2022/01/10 10:01:19;;;;;;;4.40;3.95;;;23.30;69.10;;;;;;6247616;28;84177;-67
2022/01/10 10:04:21;;;;;;;3.80;3.50;;;23.30;69.10;;;;;;6260768;28;83328;-68
2022/01/10 10:07:24;;;;;;;4.70;3.83;;;23.30;69.10;;;;;;6261655;28;84149;-68
2022/01/10 10:10:29;;;;;;;3.72;3.42;;;23.30;69.00;;;;;;6258894;28;84072;-69
2022/01/10 10:13:41;;;;;;;4.05;3.65;;;23.30;69.00;;;;;;6259479;28;84966;-68
2022/01/10 10:16:49;;;;;;;3.75;3.45;;;23.30;69.10;;;;;;6258799;28;84079;-67
2022/01/10 10:19:51;;;;;;;4.10;3.70;;;23.30;69.00;;;;;;6258189;28;84069;-68
2022/01/10 10:22:54;;;;;;;3.97;3.53;;;23.30;69.00;;;;;;6250022;28;83999;-68
2022/01/10 10:25:56;;;;;;;3.70;3.40;;;23.30;69.00;;;;;;6259771;27;84097;-67
2022/01/10 10:29:00;;;;;;;3.88;3.50;;;23.30;68.90;;;;;;6260411;28;83955;-67
2022/01/10 10:32:04;;;;;;;3.70;3.35;;;23.30;68.90;;;;;;6258820;27;84069;-67
2022/01/10 10:35:07;;;;;;;3.80;3.40;;;23.30;69.00;;;;;;6261097;28;83103;-68
2022/01/10 10:38:09;;;;;;;3.50;3.20;;;23.30;68.90;;;;;;6249187;28;84713;-68
2022/01/10 10:41:12;;;;;;;3.70;3.33;;;23.30;68.90;;;;;;6258207;27;83941;-68
2022/01/10 10:44:21;;;;;;;3.40;3.10;;;23.30;68.90;;;;;;6256198;28;85396;-66
2022/01/10 10:47:27;;;;;;;3.60;3.30;;;23.30;68.90;;;;;;6248195;28;82846;-66
2022/01/10 10:50:33;;;;;;;3.40;3.10;;;23.30;68.90;;;;;;6236124;28;84472;-66
2022/01/10 10:53:35;;;;;;;4.00;3.47;;;23.30;68.90;;;;;;6259669;28;84601;-66
2022/01/10 10:56:40;;;;;;;3.13;2.85;;;23.30;68.90;;;;;;6258719;27;84067;-66
2022/01/10 10:59:44;;;;;;;3.33;3.03;;;23.40;68.90;;;;;;6259252;28;84357;-66
2022/01/10 11:02:47;;;;;;;3.30;3.00;;;23.30;68.90;;;;;;6247278;28;84199;-66
2022/01/10 11:05:50;;;;;;;3.92;3.30;;;23.40;69.00;;;;;;6238759;28;83190;-67
2022/01/10 11:08:52;;;;;;;3.35;3.05;;;23.30;68.90;;;;;;6256649;28;84043;-66
2022/01/10 11:11:54;;;;;;;3.22;2.92;;;23.40;68.90;;;;;;6244701;28;84136;-66
2022/01/10 11:14:59;;;;;;;3.20;2.88;;;23.40;68.90;;;;;;6259726;28;84977;-65
2022/01/10 11:18:02;;;;;;;3.65;3.03;;;23.40;68.90;;;;;;6261040;28;84134;-65
2022/01/10 11:21:04;;;;;;;2.90;2.70;;;23.40;68.90;;;;;;6256277;28;83769;-67
2022/01/10 11:24:06;;;;;;;3.28;2.97;;;23.40;68.90;;;;;;6247115;28;84127;-66
2022/01/10 11:27:09;;;;;;;3.08;2.78;;;23.40;68.90;;;;;;6247108;28;84329;-66
2022/01/10 11:30:31;;;;;;;3.13;2.80;;;23.40;68.90;;;;;;6260252;27;84107;-67
2022/01/10 11:33:35;;;;;;;3.10;2.80;;;23.40;68.90;;;;;;6247066;28;84150;-66
2022/01/10 11:36:37;;;;;;;3.97;2.75;;;23.40;68.90;;;;;;6259004;28;83117;-66
2022/01/10 11:39:39;;;;;;;3.50;3.20;;;23.40;68.90;;;;;;6246075;28;82882;-67
2022/01/10 11:42:45;;;;;;;3.00;2.70;;;23.30;68.90;;;;;;6256783;28;82889;-66
2022/01/10 11:45:49;;;;;;;3.17;2.88;;;23.40;68.90;;;;;;6244147;28;84962;-66
2022/01/10 11:52:13;;;;;;;2.67;2.47;;;23.40;68.90;;;;;;6250372;27;82265;-67
2022/01/10 11:55:15;;;;;;;2.83;2.63;;;23.40;68.90;;;;;;6256995;27;82944;-66
2022/01/10 11:58:19;;;;;;;3.10;2.80;;;23.40;68.80;;;;;;6246461;28;84016;-67
2022/01/10 12:01:33;;;;;;;2.83;2.63;;;23.40;68.80;;;;;;6248038;28;84191;-67
2022/01/10 12:04:37;;;;;;;3.05;2.78;;;23.40;68.80;;;;;;6249553;28;83927;-66
2022/01/10 12:07:39;;;;;;;2.85;2.63;;;23.40;68.80;;;;;;6264100;27;82301;-66
2022/01/10 12:10:41;;;;;;;2.50;2.30;;;23.40;68.80;;;;;;6240905;28;84025;-66
2022/01/10 12:13:43;;;;;;;2.80;2.50;;;23.40;68.80;;;;;;6257145;28;84066;-67
2022/01/10 12:16:47;;;;;;;3.03;2.42;;;23.40;68.80;;;;;;6261815;27;84966;-66
2022/01/10 12:19:49;;;;;;;2.67;2.47;;;23.40;68.80;;;;;;6262617;28;84401;-67
2022/01/10 12:22:53;;;;;;;3.10;2.38;;;23.40;68.80;;;;;;6258607;27;84076;-65
2022/01/10 12:25:55;;;;;;;2.92;2.53;;;23.40;68.80;;;;;;6250453;28;84038;-66
2022/01/10 12:28:59;;;;;;;2.92;2.60;;;23.50;68.80;;;;;;6252566;28;83972;-66
2022/01/10 12:32:04;;;;;;;2.70;2.50;;;23.40;68.80;;;;;;6261597;28;82943;-66
2022/01/10 12:35:07;;;;;;;2.80;2.50;;;23.40;68.80;;;;;;6262886;27;84121;-67
2022/01/10 12:38:09;;;;;;;2.78;2.50;;;23.40;68.80;;;;;;6250259;27;83267;-67
2022/01/10 12:41:11;;;;;;;2.42;2.22;;;23.50;68.80;;;;;;6254221;28;83952;-67
2022/01/10 12:44:15;;;;;;;2.78;2.53;;;23.40;68.80;;;;;;6263618;28;83988;-67
2022/01/10 12:47:18;;;;;;;2.60;2.40;;;23.50;68.80;;;;;;6259886;28;85010;-67
2022/01/10 12:50:20;;;;;;;2.63;2.42;;;23.50;68.80;;;;;;6252109;28;82569;-67
2022/01/10 12:53:23;;;;;;;2.47;2.28;;;23.50;68.80;;;;;;6249035;28;84064;-67
2022/01/10 12:56:25;;;;;;;2.17;1.98;;;23.50;68.80;;;;;;6261651;28;84000;-67
2022/01/10 12:59:30;;;;;;;2.28;2.08;;;23.50;68.80;;;;;;6261928;28;82934;-66
2022/01/10 13:02:34;;;;;;;2.75;2.03;;;23.50;68.80;;;;;;6249092;28;83250;-66
2022/01/10 13:05:37;;;;;;;2.22;2.03;;;23.50;68.80;;;;;;6242506;28;84284;-67
2022/01/10 13:08:40;;;;;;;2.40;2.05;;;23.50;68.80;;;;;;6257130;28;83605;-67
2022/01/10 13:11:45;;;;;;;2.63;2.13;;;23.50;68.80;;;;;;6260790;27;83044;-66
2022/01/10 13:14:47;;;;;;;2.30;2.10;;;23.50;68.80;;;;;;6249016;28;84190;-66
2022/01/10 13:17:56;;;;;;;2.25;1.98;;;23.50;68.80;;;;;;6260228;27;85003;-67
2022/01/10 13:20:59;;;;;;;2.40;2.20;;;23.50;68.80;;;;;;6247422;28;84038;-66
2022/01/10 13:24:16;;;;;;;2.22;2.00;;;23.50;68.70;;;;;;6262581;27;84138;-66
2022/01/10 13:27:22;;;;;;;2.50;2.22;;;23.50;68.80;;;;;;6250344;28;84084;-66
2022/01/10 13:30:26;;;;;;;2.25;2.05;;;23.50;68.80;;;;;;6260997;28;84214;-67
2022/01/10 13:33:44;;;;;;;2.05;1.85;;;23.50;68.80;;;;;;6249284;28;83002;-66
2022/01/10 13:36:48;;;;;;;2.22;2.03;;;23.50;68.60;;;;;;6248352;27;82953;-66
2022/01/10 13:40:09;;;;;;;2.20;2.00;;;23.50;68.60;;;;;;6262560;28;83352;-67
2022/01/10 13:43:13;;;;;;;2.30;2.10;;;23.60;68.70;;;;;;6260455;28;84100;-66
2022/01/10 13:46:20;;;;;;;2.17;1.98;;;23.50;68.60;;;;;;6261608;28;84084;-67
2022/01/10 13:49:28;;;;;;;2.15;1.95;;;23.50;68.60;;;;;;6243576;28;83878;-66
2022/01/10 13:52:30;;;;;;;2.28;2.08;;;23.50;68.60;;;;;;6237139;28;84203;-67
2022/01/10 13:55:33;;;;;;;2.30;1.90;;;23.50;68.60;;;;;;6238394;28;84038;-67
2022/01/10 13:58:38;;;;;;;2.13;1.92;;;23.50;68.60;;;;;;6248157;28;82902;-66
2022/01/10 14:01:43;;;;;;;2.17;1.95;;;23.60;68.60;;;;;;6261335;28;84086;-67
2022/01/10 14:04:46;;;;;;;2.13;1.92;;;23.50;68.60;;;;;;6260106;27;84078;-67
2022/01/10 14:07:49;;;;;;;2.05;1.85;;;23.60;68.70;;;;;;6248954;28;83966;-66
2022/01/10 14:10:51;;;;;;;2.20;2.00;;;23.50;68.60;;;;;;6260995;28;83415;-67
2022/01/10 14:13:54;;;;;;;2.17;1.98;;;23.60;68.60;;;;;;6260557;28;83738;-66
2022/01/10 14:16:57;;;;;;;2.30;2.10;;;23.60;68.60;;;;;;6252912;27;84111;-67
2022/01/10 14:20:01;;;;;;;2.08;1.88;;;23.60;68.60;;;;;;6254038;28;85237;-67
2022/01/10 14:23:03;;;;;;;2.25;2.00;;;23.60;68.60;;;;;;6258177;28;83232;-66
2022/01/10 14:26:05;;;;;;;2.08;1.88;;;23.50;68.60;;;;;;6261471;28;84122;-67
2022/01/10 14:29:07;;;;;;;1.88;1.73;;;23.50;68.60;;;;;;6260349;28;84013;-66
2022/01/10 14:32:11;;;;;;;2.33;2.00;;;23.60;68.60;;;;;;6258155;28;84267;-67
2022/01/10 14:35:14;;;;;;;2.10;1.90;;;23.60;68.60;;;;;;6258445;28;83088;-66
2022/01/10 14:38:16;;;;;;;2.10;1.80;;;23.60;68.60;;;;;;6259076;28;83237;-66
2022/01/10 14:41:22;;;;;;;1.90;1.80;;;23.60;68.60;;;;;;6260561;27;83277;-67
2022/01/10 14:44:25;;;;;;;2.00;1.80;;;23.60;68.60;;;;;;6257503;27;83706;-66
2022/01/10 14:47:27;;;;;;;2.55;1.92;;;23.60;68.70;;;;;;6258555;28;84070;-67
2022/01/10 14:50:31;;;;;;;2.78;2.35;;;23.60;68.60;;;;;;6257875;28;84890;-66
2022/01/10 14:53:33;;;;;;;2.25;2.05;;;23.70;68.40;;;;;;6259975;28;84065;-67
2022/01/10 14:56:35;;;;;;;3.17;2.00;;;23.60;68.10;;;;;;6259451;28;84018;-67
2022/01/10 14:59:37;;;;;;;2.55;1.92;;;23.60;67.80;;;;;;6257103;28;84029;-67
2022/01/10 15:02:39;;;;;;;3.33;2.00;;;23.60;67.70;;;;;;6248210;28;84273;-67
2022/01/10 15:05:43;;;;;;;4.95;2.20;;;23.60;68.10;;;;;;6245920;28;84124;-68
2022/01/10 15:08:45;;;;;;;2.80;1.92;;;23.70;68.10;;;;;;6257191;28;82893;-68
2022/01/10 15:11:50;;;;;;;3.25;1.85;;;23.70;67.70;;;;;;6259452;28;83638;-68
2022/01/10 15:14:54;;;;;;;2.72;2.00;;;23.60;67.40;;;;;;6256135;28;84043;-68
2022/01/10 15:17:57;;;;;;;2.90;2.22;;;23.70;67.10;;;;;;6245449;27;84162;-68
2022/01/10 15:21:01;;;;;;;2.95;2.13;;;23.70;67.20;;;;;;6255435;28;83896;-69
2022/01/10 15:24:03;;;;;;;2.80;2.17;;;23.70;67.40;;;;;;6256730;28;83880;-69
2022/01/10 15:27:06;;;;;;;2.88;2.20;;;23.70;66.90;;;;;;6256844;28;84799;-70
2022/01/10 15:30:10;;;;;;;3.30;2.00;;;23.70;67.10;;;;;;6255269;28;84425;-70
2022/01/10 15:33:14;;;;;;;2.88;2.30;;;23.70;66.90;;;;;;6247443;28;82992;-71
2022/01/10 15:36:17;;;;;;;3.22;2.03;;;23.70;66.90;;;;;;6252999;27;83160;-70
2022/01/10 15:39:19;;;;;;;2.40;2.20;;;23.70;66.90;;;;;;6261003;27;84718;-67
2022/01/10 15:42:21;;;;;;;3.33;2.25;;;23.70;66.60;;;;;;6259850;28;82227;-68
2022/01/10 15:45:24;;;;;;;4.10;2.20;;;23.70;66.60;;;;;;6259774;28;84073;-68
2022/01/10 15:48:26;;;;;;;3.72;1.90;;;23.70;66.50;;;;;;6259348;28;83878;-67
2022/01/10 15:51:30;;;;;;;2.55;2.13;;;23.70;66.20;;;;;;6260171;27;83592;-68
2022/01/10 15:54:32;;;;;;;3.47;2.40;;;23.70;66.10;;;;;;6258232;28;84440;-67
2022/01/10 15:57:34;;;;;;;5.28;2.42;;;23.70;66.00;;;;;;6261992;27;83935;-67
2022/01/10 16:00:40;;;;;;;3.20;2.00;;;23.70;66.20;;;;;;6258933;28;83943;-67
2022/01/10 16:03:42;;;;;;;2.78;2.20;;;23.70;66.50;;;;;;6256231;28;83422;-68